Time;durP1;ratioP1;P1;durP2;ratioP2;P2;SDS_P1;SDS_P2;PMS_P1;PMS_P2;Temp;Humidity;BMP_temperature;BMP_pressure;BME280_temperature;BME280_humidity;BME280_pressure;Samples;Min_cycle;Max_cycle;Signal;HPM_P1;HPM_P2
2023/08/15 00:02:17;;;;;;;7.23;6.20;;;28.00;48.60;;;;;;5135810;27;20170;-53
2023/08/15 00:04:43;;;;;;;11.93;6.90;;;28.00;48.70;;;;;;5135375;27;20198;-52
2023/08/15 00:07:09;;;;;;;7.10;5.83;;;28.00;48.80;;;;;;5135595;27;20738;-54
2023/08/15 00:09:35;;;;;;;5.67;5.17;;;28.00;48.70;;;;;;5135488;27;20174;-53
2023/08/15 00:12:01;;;;;;;5.23;4.80;;;28.00;48.50;;;;;;5135517;27;20403;-54
2023/08/15 00:14:27;;;;;;;8.90;4.67;;;27.90;47.90;;;;;;5135273;27;20171;-54
2023/08/15 00:16:53;;;;;;;4.10;3.70;;;27.90;47.50;;;;;;5135615;27;20175;-51
2023/08/15 00:19:19;;;;;;;3.80;3.50;;;27.80;47.70;;;;;;5135397;27;20171;-51
2023/08/15 00:21:45;;;;;;;4.40;3.83;;;27.80;47.70;;;;;;5135364;27;20785;-55
2023/08/15 00:24:11;;;;;;;5.70;4.17;;;27.80;47.80;;;;;;5134992;27;20250;-51
2023/08/15 00:26:36;;;;;;;6.83;3.53;;;27.70;47.80;;;;;;5135183;27;20202;-53
2023/08/15 00:29:02;;;;;;;4.23;3.03;;;27.60;47.80;;;;;;5135329;27;20167;-51
2023/08/15 00:31:28;;;;;;;4.50;3.03;;;27.60;47.80;;;;;;5135303;27;20643;-53
2023/08/15 00:33:54;;;;;;;4.70;3.47;;;27.60;47.90;;;;;;5135067;27;20758;-54
2023/08/15 00:36:20;;;;;;;5.00;3.20;;;27.50;48.20;;;;;;5134836;27;20207;-52
2023/08/15 00:38:45;;;;;;;3.90;3.50;;;27.50;48.40;;;;;;5134974;27;20229;-52
2023/08/15 00:41:11;;;;;;;3.73;2.97;;;27.50;48.50;;;;;;5135049;27;20170;-54
2023/08/15 00:43:37;;;;;;;4.00;3.20;;;27.50;48.60;;;;;;5135232;27;20178;-54
2023/08/15 00:46:05;;;;;;;5.47;3.80;;;27.40;48.60;;;;;;5134784;27;20855;-52
2023/08/15 00:48:32;;;;;;;3.47;3.17;;;27.50;48.70;;;;;;5134823;27;20166;-53
2023/08/15 00:51:00;;;;;;;4.50;2.97;;;27.50;48.70;;;;;;5134717;27;20404;-52
2023/08/15 00:53:29;;;;;;;4.27;3.10;;;27.50;48.80;;;;;;5134753;27;20396;-52
2023/08/15 00:55:57;;;;;;;4.10;2.73;;;27.40;48.80;;;;;;5134425;27;20480;-52
2023/08/15 00:58:24;;;;;;;6.30;3.20;;;27.40;48.80;;;;;;5134633;27;20897;-53
2023/08/15 01:00:51;;;;;;;3.73;3.23;;;27.30;48.60;;;;;;5134452;27;20407;-52
2023/08/15 01:03:18;;;;;;;5.40;3.60;;;27.20;48.60;;;;;;5134509;27;20920;-52
2023/08/15 01:05:44;;;;;;;3.10;2.80;;;27.20;48.80;;;;;;5134124;27;20979;-53
2023/08/15 01:08:10;;;;;;;3.90;3.27;;;27.10;49.00;;;;;;5134667;27;20468;-53
2023/08/15 01:10:39;;;;;;;4.93;3.13;;;27.10;49.10;;;;;;5134667;27;20409;-52
2023/08/15 01:13:35;;;;;;;3.40;3.00;;;27.10;49.10;;;;;;5134333;27;20403;-55
2023/08/15 01:16:03;;;;;;;4.20;3.40;;;27.10;49.20;;;;;;5133933;27;20420;-52
2023/08/15 01:18:37;;;;;;;5.77;3.60;;;27.00;49.30;;;;;;5134188;27;20400;-56
2023/08/15 01:21:04;;;;;;;5.37;3.60;;;27.00;49.20;;;;;;5134234;27;20404;-56
2023/08/15 01:23:49;;;;;;;4.07;3.07;;;26.90;48.80;;;;;;5134076;27;20432;-53
2023/08/15 01:26:15;;;;;;;7.10;3.50;;;26.90;48.80;;;;;;5133767;27;20462;-54
2023/08/15 01:28:41;;;;;;;5.40;4.00;;;26.90;49.00;;;;;;5133927;27;20413;-51
2023/08/15 01:31:32;;;;;;;6.77;4.10;;;26.90;49.10;;;;;;5134005;27;20403;-52
2023/08/15 01:34:08;;;;;;;4.10;3.10;;;26.90;48.70;;;;;;5133836;27;20182;-52
2023/08/15 01:36:42;;;;;;;4.50;4.10;;;26.80;49.10;;;;;;5133923;27;20407;-52
2023/08/15 01:39:09;;;;;;;4.10;3.33;;;26.80;49.20;;;;;;5133761;27;20419;-53
2023/08/15 01:41:39;;;;;;;4.40;4.00;;;26.80;49.20;;;;;;5133740;27;20412;-54
2023/08/15 01:44:08;;;;;;;5.43;3.80;;;26.80;48.90;;;;;;5133711;27;20408;-53
2023/08/15 01:46:34;;;;;;;6.10;3.70;;;26.80;49.00;;;;;;5133857;27;20523;-54
2023/08/15 01:49:00;;;;;;;5.97;4.00;;;26.70;48.90;;;;;;5133911;27;20917;-52
2023/08/15 01:51:26;;;;;;;4.00;3.50;;;26.60;49.00;;;;;;5133815;27;20170;-51
2023/08/15 01:53:52;;;;;;;4.27;3.47;;;26.60;49.20;;;;;;5133861;27;20194;-54
2023/08/15 01:56:18;;;;;;;4.33;3.73;;;26.60;49.30;;;;;;5133561;27;20435;-54
2023/08/15 01:58:44;;;;;;;11.23;4.20;;;26.60;49.50;;;;;;5133589;27;20400;-51
2023/08/15 02:01:10;;;;;;;4.03;3.63;;;26.60;49.50;;;;;;5133734;27;20628;-54
2023/08/15 02:03:35;;;;;;;4.17;3.30;;;26.60;49.50;;;;;;5133397;27;20174;-54
2023/08/15 02:06:03;;;;;;;7.10;4.73;;;26.60;49.70;;;;;;5132806;27;20202;-52
2023/08/15 02:08:29;;;;;;;4.67;4.20;;;26.60;49.30;;;;;;5133591;27;20171;-52
2023/08/15 02:10:54;;;;;;;5.43;3.53;;;26.50;49.30;;;;;;5133485;27;20754;-55
2023/08/15 02:13:20;;;;;;;5.97;4.27;;;26.50;49.30;;;;;;5132903;27;20577;-55
2023/08/15 02:15:46;;;;;;;12.10;4.93;;;26.40;49.50;;;;;;5133007;27;20190;-51
2023/08/15 02:18:12;;;;;;;4.60;3.40;;;26.40;49.40;;;;;;5133153;27;20528;-53
2023/08/15 02:20:38;;;;;;;5.03;3.70;;;26.40;49.40;;;;;;5133105;27;20175;-56
2023/08/15 02:23:04;;;;;;;4.33;3.90;;;26.30;49.50;;;;;;5133162;27;20173;-50
2023/08/15 02:25:29;;;;;;;5.93;4.13;;;26.30;49.70;;;;;;5132716;27;20452;-53
2023/08/15 02:27:55;;;;;;;6.17;4.20;;;26.30;49.60;;;;;;5133099;27;20491;-54
2023/08/15 02:30:21;;;;;;;5.17;4.67;;;26.30;49.80;;;;;;5133104;27;20245;-50
2023/08/15 02:32:47;;;;;;;4.30;3.90;;;26.30;50.10;;;;;;5133098;27;20692;-53
2023/08/15 02:35:13;;;;;;;3.90;3.43;;;26.30;50.10;;;;;;5132371;28;20202;-54
2023/08/15 02:37:39;;;;;;;7.87;5.43;;;26.30;49.90;;;;;;5132922;27;20216;-52
2023/08/15 02:40:08;;;;;;;8.50;4.07;;;26.30;49.90;;;;;;5133123;27;20480;-56
2023/08/15 02:42:34;;;;;;;5.60;4.57;;;26.30;50.00;;;;;;5133096;27;20449;-54
2023/08/15 02:45:00;;;;;;;4.60;4.20;;;26.20;50.10;;;;;;5132487;27;20428;-51
2023/08/15 02:47:26;;;;;;;4.90;4.27;;;26.20;50.20;;;;;;5132845;27;20405;-53
2023/08/15 02:49:52;;;;;;;6.00;4.70;;;26.20;50.20;;;;;;5132749;27;20434;-51
2023/08/15 02:52:17;;;;;;;4.80;3.70;;;26.20;50.20;;;;;;5132836;27;20407;-52
2023/08/15 02:54:43;;;;;;;5.80;3.83;;;26.10;50.20;;;;;;5132774;28;20552;-54
2023/08/15 02:57:09;;;;;;;5.23;4.73;;;26.20;50.30;;;;;;5132903;28;20239;-52
2023/08/15 02:59:36;;;;;;;6.37;4.80;;;26.10;50.20;;;;;;5132788;27;20852;-52
2023/08/15 03:02:02;;;;;;;6.67;4.40;;;26.10;50.50;;;;;;5132710;28;20167;-56
2023/08/15 03:04:28;;;;;;;6.53;3.90;;;26.10;50.40;;;;;;5132274;27;20497;-56
2023/08/15 03:06:54;;;;;;;6.30;4.83;;;26.10;50.30;;;;;;5132862;28;20456;-51
2023/08/15 03:09:19;;;;;;;4.20;3.80;;;26.10;50.50;;;;;;5132797;27;20235;-53
2023/08/15 03:11:45;;;;;;;4.53;4.13;;;26.00;50.40;;;;;;5132607;27;20894;-54
2023/08/15 03:14:11;;;;;;;4.70;4.30;;;26.00;50.50;;;;;;5132345;27;20166;-52
2023/08/15 03:16:37;;;;;;;4.97;4.47;;;26.00;50.60;;;;;;5132633;28;20179;-51
2023/08/15 03:19:03;;;;;;;5.03;4.17;;;26.00;50.60;;;;;;5132392;27;20400;-55
2023/08/15 03:21:30;;;;;;;5.33;4.60;;;26.00;50.80;;;;;;5132816;27;20264;-56
2023/08/15 03:23:55;;;;;;;5.23;4.70;;;26.00;50.80;;;;;;5133499;27;20170;-52
2023/08/15 03:26:21;;;;;;;6.13;4.60;;;26.00;50.80;;;;;;5136078;27;20459;-53
2023/08/15 03:28:47;;;;;;;6.87;4.87;;;25.90;50.30;;;;;;5136389;27;20167;-54
2023/08/15 03:31:13;;;;;;;5.37;4.87;;;25.90;50.40;;;;;;5136345;27;20215;-52
2023/08/15 03:33:39;;;;;;;6.70;4.63;;;25.90;50.40;;;;;;5136220;27;20400;-53
2023/08/15 03:36:05;;;;;;;6.67;4.90;;;25.90;50.40;;;;;;5135925;27;20198;-56
2023/08/15 03:38:31;;;;;;;4.90;4.27;;;25.90;50.40;;;;;;5136232;27;20169;-52
2023/08/15 03:41:04;;;;;;;5.30;4.80;;;25.90;50.50;;;;;;5136417;27;20491;-52
2023/08/15 03:43:34;;;;;;;6.57;5.97;;;25.80;50.60;;;;;;5136268;27;20243;-52
2023/08/15 03:46:01;;;;;;;6.33;4.83;;;25.80;50.60;;;;;;5135891;27;20452;-50
2023/08/15 03:48:30;;;;;;;5.97;5.20;;;25.80;50.70;;;;;;5136249;27;20926;-54
2023/08/15 03:50:57;;;;;;;7.97;5.00;;;25.80;50.80;;;;;;5136005;27;20403;-51
2023/08/15 03:53:23;;;;;;;7.07;5.50;;;25.80;50.80;;;;;;5135916;27;20408;-52
2023/08/15 03:55:49;;;;;;;4.93;4.47;;;25.80;50.80;;;;;;5134361;27;20460;-57
2023/08/15 03:58:17;;;;;;;5.80;5.27;;;25.90;50.60;;;;;;5135919;27;20221;-55
2023/08/15 04:00:43;;;;;;;9.03;5.50;;;25.90;50.80;;;;;;5135775;27;20499;-52
2023/08/15 04:03:09;;;;;;;10.40;5.93;;;25.90;50.80;;;;;;5135675;27;20746;-55
2023/08/15 04:05:35;;;;;;;6.43;5.10;;;25.90;50.60;;;;;;5135531;27;20540;-52
2023/08/15 04:08:02;;;;;;;6.50;4.60;;;25.80;50.40;;;;;;5135627;27;20405;-54
2023/08/15 04:10:28;;;;;;;6.90;6.23;;;25.70;50.40;;;;;;5135562;27;20404;-57
2023/08/15 04:12:55;;;;;;;6.60;5.57;;;25.70;50.60;;;;;;5135630;27;20397;-52
2023/08/15 04:15:21;;;;;;;6.87;5.07;;;25.70;50.90;;;;;;5135117;27;20963;-51
2023/08/15 04:17:47;;;;;;;6.30;5.30;;;25.70;51.10;;;;;;5135384;27;20409;-56
2023/08/15 04:20:13;;;;;;;6.23;5.63;;;25.70;51.10;;;;;;5135700;27;20404;-52
2023/08/15 04:22:39;;;;;;;6.37;5.27;;;25.70;51.20;;;;;;5135434;27;20408;-51
2023/08/15 04:25:09;;;;;;;6.53;5.23;;;25.60;51.30;;;;;;5135179;27;20796;-58
2023/08/15 04:27:38;;;;;;;5.30;4.83;;;25.70;51.30;;;;;;5135202;27;20385;-58
2023/08/15 04:30:05;;;;;;;6.47;5.50;;;25.70;51.40;;;;;;5135231;27;20408;-52
2023/08/15 04:32:31;;;;;;;7.30;5.23;;;25.70;51.60;;;;;;5135406;27;20392;-58
2023/08/15 04:34:57;;;;;;;5.43;4.93;;;25.70;51.60;;;;;;5134324;27;20435;-52
2023/08/15 04:37:23;;;;;;;5.87;4.70;;;25.70;51.60;;;;;;5135216;27;20404;-52
2023/08/15 04:39:49;;;;;;;6.47;5.20;;;25.80;51.70;;;;;;5135044;27;20166;-54
2023/08/15 04:42:15;;;;;;;7.63;5.67;;;25.80;51.70;;;;;;5134861;27;20396;-51
2023/08/15 04:44:40;;;;;;;5.90;5.27;;;25.80;51.60;;;;;;5134979;27;20212;-53
2023/08/15 04:47:06;;;;;;;6.67;6.07;;;25.90;51.70;;;;;;5134977;27;20678;-53
2023/08/15 04:49:33;;;;;;;6.90;6.20;;;25.90;51.40;;;;;;5134845;27;20198;-58
2023/08/15 04:52:00;;;;;;;7.70;5.77;;;26.00;51.90;;;;;;5134803;27;20170;-50
2023/08/15 04:54:27;;;;;;;7.57;6.00;;;26.00;51.90;;;;;;5134529;27;20747;-51
2023/08/15 04:56:53;;;;;;;5.93;5.33;;;26.00;51.90;;;;;;5134582;27;20879;-57
2023/08/15 04:59:19;;;;;;;6.27;5.67;;;26.10;52.10;;;;;;5134590;27;20412;-57
2023/08/15 05:01:45;;;;;;;7.93;6.40;;;26.20;52.30;;;;;;5134515;27;20415;-52
2023/08/15 05:04:11;;;;;;;5.87;5.37;;;26.20;52.10;;;;;;5134263;27;20412;-51
2023/08/15 05:06:40;;;;;;;6.90;5.53;;;26.30;51.70;;;;;;5134537;27;20466;-57
2023/08/15 05:09:06;;;;;;;7.33;6.10;;;26.30;52.50;;;;;;5134666;27;20421;-52
2023/08/15 05:11:31;;;;;;;8.33;5.90;;;26.40;51.80;;;;;;5134287;27;20916;-50
2023/08/15 05:14:00;;;;;;;7.47;6.73;;;26.40;51.70;;;;;;5134299;27;20269;-57
2023/08/15 05:16:26;;;;;;;7.00;6.40;;;26.60;51.60;;;;;;5134254;27;20556;-52
2023/08/15 05:18:52;;;;;;;7.03;6.40;;;26.60;51.30;;;;;;5134531;27;20416;-52
2023/08/15 05:21:17;;;;;;;7.30;5.30;;;26.70;51.10;;;;;;5134185;27;20593;-56
2023/08/15 05:23:43;;;;;;;8.43;7.53;;;26.80;50.90;;;;;;5134205;27;20170;-52
2023/08/15 05:26:09;;;;;;;8.23;7.43;;;26.90;50.20;;;;;;5133581;27;20560;-53
2023/08/15 05:28:35;;;;;;;11.10;7.10;;;27.00;50.70;;;;;;5134366;27;20177;-56
2023/08/15 05:31:00;;;;;;;7.40;6.73;;;27.00;50.30;;;;;;5133981;27;20656;-51
2023/08/15 05:33:26;;;;;;;7.40;6.63;;;27.10;50.10;;;;;;5134035;27;20167;-50
2023/08/15 05:35:52;;;;;;;9.13;7.30;;;27.10;49.40;;;;;;5133573;27;20217;-52
2023/08/15 05:38:18;;;;;;;8.20;7.37;;;27.20;49.60;;;;;;5133865;27;20739;-56
2023/08/15 05:40:44;;;;;;;6.93;6.33;;;27.30;48.00;;;;;;5133731;27;20181;-50
2023/08/15 05:43:09;;;;;;;6.63;5.93;;;27.30;46.00;;;;;;5133825;27;20219;-50
2023/08/15 05:45:35;;;;;;;8.73;6.90;;;27.40;46.00;;;;;;5133386;27;20204;-56
2023/08/15 05:48:01;;;;;;;8.40;6.20;;;27.50;45.50;;;;;;5132946;27;20163;-53
2023/08/15 05:50:27;;;;;;;8.13;7.43;;;27.50;45.80;;;;;;5133593;27;20439;-52
2023/08/15 05:52:53;;;;;;;6.70;6.00;;;27.60;45.60;;;;;;5133617;27;20174;-55
2023/08/15 05:55:18;;;;;;;8.03;7.33;;;27.70;44.40;;;;;;5133211;27;20190;-50
2023/08/15 05:57:44;;;;;;;6.70;6.10;;;27.80;44.30;;;;;;5133568;27;20203;-50
2023/08/15 06:00:11;;;;;;;7.57;6.87;;;27.80;43.00;;;;;;5133517;27;20775;-55
2023/08/15 06:02:38;;;;;;;7.90;7.17;;;27.80;43.60;;;;;;5133511;27;20568;-53
2023/08/15 06:05:05;;;;;;;6.43;5.67;;;27.90;44.10;;;;;;5133015;27;20920;-51
2023/08/15 06:07:30;;;;;;;8.47;7.20;;;27.90;42.80;;;;;;5133709;27;20757;-55
2023/08/15 06:09:56;;;;;;;6.77;6.07;;;28.00;43.00;;;;;;5133307;27;20887;-52
2023/08/15 06:12:22;;;;;;;6.00;5.50;;;28.10;42.80;;;;;;5133217;27;20396;-51
2023/08/15 06:14:48;;;;;;;7.37;6.40;;;28.10;42.60;;;;;;5132993;27;20447;-55
2023/08/15 06:17:14;;;;;;;10.60;6.80;;;28.20;42.60;;;;;;5133183;27;20904;-51
2023/08/15 06:19:40;;;;;;;10.00;6.70;;;28.20;41.30;;;;;;5133242;27;20258;-55
2023/08/15 06:22:06;;;;;;;7.10;5.80;;;28.20;41.30;;;;;;5133209;27;20261;-51
2023/08/15 06:24:32;;;;;;;6.43;5.93;;;28.40;41.20;;;;;;5132710;27;21280;-55
2023/08/15 06:26:57;;;;;;;7.57;5.73;;;28.40;40.90;;;;;;5133208;27;20467;-51
2023/08/15 06:29:25;;;;;;;6.83;6.23;;;28.50;40.70;;;;;;5133123;27;20582;-56
2023/08/15 06:31:52;;;;;;;5.93;5.37;;;28.60;41.30;;;;;;5132015;27;20170;-50
2023/08/15 06:34:18;;;;;;;7.10;5.77;;;28.60;41.10;;;;;;5132625;27;20427;-50
2023/08/15 06:36:44;;;;;;;6.47;5.80;;;28.70;40.60;;;;;;5132912;27;20407;-54
2023/08/15 06:39:11;;;;;;;5.80;5.30;;;28.80;39.90;;;;;;5131949;27;20178;-55
2023/08/15 06:41:37;;;;;;;7.03;6.33;;;28.90;39.20;;;;;;5132906;27;20418;-52
2023/08/15 06:44:04;;;;;;;6.57;6.07;;;28.90;39.50;;;;;;5133106;27;20482;-54
2023/08/15 06:46:29;;;;;;;6.00;5.40;;;28.90;39.80;;;;;;5132695;27;20460;-50
2023/08/15 06:48:55;;;;;;;6.67;6.07;;;29.10;40.40;;;;;;5132867;27;20409;-51
2023/08/15 06:51:21;;;;;;;6.10;5.60;;;29.10;40.40;;;;;;5132693;28;20177;-56
2023/08/15 06:53:50;;;;;;;7.50;6.30;;;29.10;40.10;;;;;;5132865;27;20193;-55
2023/08/15 06:56:15;;;;;;;6.53;5.93;;;29.30;40.50;;;;;;5132512;27;20432;-52
2023/08/15 06:58:42;;;;;;;9.63;5.80;;;29.30;39.90;;;;;;5135299;27;20416;-52
2023/08/15 07:01:07;;;;;;;6.93;6.23;;;29.40;39.20;;;;;;5137007;27;20680;-53
2023/08/15 07:03:33;;;;;;;7.07;6.07;;;29.40;38.50;;;;;;5136996;27;20553;-52
2023/08/15 07:06:00;;;;;;;6.80;6.30;;;29.50;38.90;;;;;;5136426;27;20453;-55
2023/08/15 07:08:25;;;;;;;7.53;5.83;;;29.60;39.20;;;;;;5136966;27;20191;-51
2023/08/15 07:10:58;;;;;;;6.77;6.07;;;29.60;38.50;;;;;;5136711;27;20516;-55
2023/08/15 07:13:24;;;;;;;6.63;5.93;;;29.60;38.50;;;;;;5136709;27;20179;-51
2023/08/15 07:15:57;;;;;;;7.93;5.90;;;29.60;38.60;;;;;;5136728;27;20436;-51
2023/08/15 07:18:23;;;;;;;9.73;5.10;;;29.70;38.10;;;;;;5136611;27;20412;-54
2023/08/15 07:20:51;;;;;;;6.10;5.50;;;29.70;37.60;;;;;;5136503;27;20415;-52
2023/08/15 07:23:17;;;;;;;7.47;5.90;;;29.80;37.60;;;;;;5136743;27;20408;-51
2023/08/15 07:25:43;;;;;;;8.83;5.80;;;29.90;37.30;;;;;;5136110;27;20508;-55
2023/08/15 07:28:09;;;;;;;7.07;6.37;;;29.90;37.20;;;;;;5136359;27;20411;-52
2023/08/15 07:30:36;;;;;;;6.23;5.73;;;30.00;37.30;;;;;;5136474;27;20407;-52
2023/08/15 07:33:02;;;;;;;6.07;5.47;;;30.00;37.10;;;;;;5136562;27;20411;-56
2023/08/15 07:35:28;;;;;;;5.90;5.40;;;30.10;37.80;;;;;;5135884;27;20504;-52
2023/08/15 07:37:54;;;;;;;5.97;5.10;;;30.10;37.90;;;;;;5136271;27;20765;-51
2023/08/15 07:40:21;;;;;;;6.60;5.90;;;30.20;37.30;;;;;;5136398;27;20408;-54
2023/08/15 07:42:52;;;;;;;7.40;6.37;;;30.30;36.10;;;;;;5136457;27;20415;-52
2023/08/15 07:45:19;;;;;;;7.10;5.90;;;30.30;36.60;;;;;;5135755;27;20455;-52
2023/08/15 07:47:48;;;;;;;6.90;6.20;;;30.30;37.50;;;;;;5136014;27;20427;-52
2023/08/15 07:50:18;;;;;;;6.07;5.37;;;30.40;38.30;;;;;;5136030;27;20901;-50
2023/08/15 07:52:45;;;;;;;6.93;6.23;;;30.60;37.80;;;;;;5136172;27;20434;-55
2023/08/15 07:55:11;;;;;;;7.80;6.70;;;30.70;37.00;;;;;;5135650;27;20928;-53
2023/08/15 07:57:38;;;;;;;6.30;5.70;;;30.70;36.30;;;;;;5135928;27;20868;-52
2023/08/15 08:00:04;;;;;;;6.50;5.90;;;30.70;36.40;;;;;;5136026;27;20403;-55
2023/08/15 08:02:30;;;;;;;7.90;7.10;;;30.70;36.60;;;;;;5136024;27;20404;-53
2023/08/15 08:04:56;;;;;;;6.70;5.33;;;30.80;37.50;;;;;;5135475;27;20420;-50
2023/08/15 08:07:22;;;;;;;6.23;5.43;;;30.80;36.60;;;;;;5135900;27;20198;-55
2023/08/15 08:09:48;;;;;;;9.13;6.50;;;31.00;36.90;;;;;;5134773;27;20651;-54
2023/08/15 08:12:13;;;;;;;6.60;5.80;;;31.00;36.80;;;;;;5135597;27;20163;-51
2023/08/15 08:14:39;;;;;;;7.67;5.80;;;31.10;36.40;;;;;;5135485;27;20655;-56
2023/08/15 08:17:05;;;;;;;8.80;5.33;;;31.20;35.90;;;;;;5135506;27;20182;-55
2023/08/15 08:19:31;;;;;;;6.50;5.90;;;31.20;36.50;;;;;;5135382;27;20492;-51
2023/08/15 08:21:57;;;;;;;6.10;5.50;;;31.20;36.00;;;;;;5135416;27;20173;-53
2023/08/15 08:24:23;;;;;;;7.10;5.43;;;31.20;35.80;;;;;;5135094;27;20174;-55
2023/08/15 08:26:49;;;;;;;7.60;6.67;;;31.10;36.60;;;;;;5135203;27;20198;-52
2023/08/15 08:29:15;;;;;;;7.30;6.03;;;31.20;37.10;;;;;;5135268;27;20162;-52
2023/08/15 08:31:42;;;;;;;11.43;5.53;;;31.30;37.00;;;;;;5135281;27;20452;-56
2023/08/15 08:34:15;;;;;;;6.40;5.43;;;31.30;36.60;;;;;;5134908;27;20254;-53
2023/08/15 08:36:42;;;;;;;6.97;5.63;;;31.40;37.30;;;;;;5135195;27;20393;-52
2023/08/15 08:39:08;;;;;;;7.20;6.50;;;31.60;37.00;;;;;;5134995;27;20463;-54
2023/08/15 08:41:36;;;;;;;6.97;5.43;;;31.70;37.30;;;;;;5135059;27;20553;-53
2023/08/15 08:44:02;;;;;;;6.57;6.00;;;31.80;36.90;;;;;;5134762;27;20464;-52
2023/08/15 08:46:29;;;;;;;7.87;6.23;;;31.90;36.30;;;;;;5134528;27;20451;-55
2023/08/15 08:48:59;;;;;;;5.67;5.17;;;31.90;36.30;;;;;;5134886;27;20400;-55
2023/08/15 08:51:25;;;;;;;5.87;5.43;;;31.90;35.30;;;;;;5134754;27;20396;-51
2023/08/15 08:53:52;;;;;;;7.13;6.07;;;31.80;35.20;;;;;;5134769;27;20449;-51
2023/08/15 08:56:18;;;;;;;9.37;5.70;;;31.70;35.30;;;;;;5134351;27;20434;-54
2023/08/15 08:58:51;;;;;;;6.73;6.13;;;31.60;35.90;;;;;;5134601;27;20404;-54
2023/08/15 09:01:18;;;;;;;6.10;5.50;;;31.60;35.60;;;;;;5134850;27;20408;-52
2023/08/15 09:03:44;;;;;;;10.93;6.80;;;31.60;36.10;;;;;;5134627;27;20408;-52
2023/08/15 09:06:10;;;;;;;10.43;6.60;;;31.60;36.20;;;;;;5134137;27;20825;-54
2023/08/15 09:08:36;;;;;;;7.97;6.40;;;31.70;36.50;;;;;;5134431;27;20401;-52
2023/08/15 09:11:02;;;;;;;5.90;5.30;;;31.80;36.90;;;;;;5134283;27;20407;-54
2023/08/15 09:13:28;;;;;;;12.43;8.73;;;32.00;36.50;;;;;;5134388;27;20679;-55
2023/08/15 09:15:58;;;;;;;10.23;6.57;;;32.10;36.20;;;;;;5134055;27;20191;-51
2023/08/15 09:18:26;;;;;;;17.43;8.03;;;32.20;35.80;;;;;;5134284;27;20163;-57
2023/08/15 09:20:52;;;;;;;19.63;6.57;;;32.20;36.30;;;;;;5134217;27;20436;-53
2023/08/15 09:23:18;;;;;;;6.70;5.77;;;32.30;36.20;;;;;;5134150;27;20484;-52
2023/08/15 09:25:44;;;;;;;6.63;5.90;;;32.40;34.50;;;;;;5133725;27;20485;-52
2023/08/15 09:28:10;;;;;;;7.03;6.10;;;32.50;34.60;;;;;;5134049;27;20454;-55
2023/08/15 09:30:36;;;;;;;8.10;5.57;;;32.60;35.90;;;;;;5134438;27;20171;-53
2023/08/15 09:33:05;;;;;;;7.47;6.80;;;32.70;35.10;;;;;;5134209;27;20618;-52
2023/08/15 09:35:32;;;;;;;10.73;6.93;;;32.80;35.00;;;;;;5133608;27;20448;-56
2023/08/15 09:38:05;;;;;;;6.70;6.10;;;32.90;35.10;;;;;;5133871;27;20407;-53
2023/08/15 09:40:31;;;;;;;9.47;6.40;;;32.90;34.30;;;;;;5133793;27;20384;-52
2023/08/15 09:42:57;;;;;;;9.73;6.50;;;33.10;35.00;;;;;;5133855;27;20931;-53
2023/08/15 09:45:24;;;;;;;7.60;6.07;;;33.20;35.00;;;;;;5133447;27;20462;-57
2023/08/15 09:47:50;;;;;;;6.17;5.57;;;33.20;34.50;;;;;;5133673;27;20439;-53
2023/08/15 09:50:16;;;;;;;7.50;6.50;;;33.30;35.00;;;;;;5134026;27;20491;-54
2023/08/15 09:52:44;;;;;;;12.50;8.07;;;33.40;35.30;;;;;;5133605;27;20415;-53
2023/08/15 09:55:12;;;;;;;8.43;6.17;;;33.50;33.80;;;;;;5133541;27;20455;-52
2023/08/15 09:57:40;;;;;;;23.93;9.13;;;33.60;33.80;;;;;;5132362;27;20416;-52
2023/08/15 10:00:11;;;;;;;13.70;9.00;;;33.60;34.00;;;;;;5133450;27;21008;-53
2023/08/15 10:02:43;;;;;;;7.73;6.90;;;33.70;34.50;;;;;;5133859;27;20385;-51
2023/08/15 10:05:11;;;;;;;8.77;7.83;;;33.80;34.40;;;;;;5133289;27;20426;-55
2023/08/15 10:07:38;;;;;;;14.63;8.07;;;33.90;34.60;;;;;;5133337;27;20403;-52
2023/08/15 10:10:05;;;;;;;10.73;7.17;;;34.00;33.70;;;;;;5133196;27;20399;-52
2023/08/15 10:12:34;;;;;;;12.17;7.17;;;34.00;34.10;;;;;;5133439;27;20396;-58
2023/08/15 10:15:00;;;;;;;6.93;6.33;;;34.10;34.70;;;;;;5133029;27;20445;-51
2023/08/15 10:17:29;;;;;;;14.07;6.90;;;34.10;33.60;;;;;;5133198;27;20405;-53
2023/08/15 10:20:00;;;;;;;10.00;6.30;;;34.20;33.40;;;;;;5133140;27;20416;-54
2023/08/15 10:22:26;;;;;;;6.40;5.90;;;34.20;34.50;;;;;;5133517;27;20869;-54
2023/08/15 10:24:54;;;;;;;7.63;5.90;;;34.30;34.10;;;;;;5133075;27;20527;-52
2023/08/15 10:27:20;;;;;;;7.70;6.90;;;34.30;33.50;;;;;;5132959;27;20497;-57
2023/08/15 10:29:58;;;;;;;7.10;6.37;;;34.40;33.50;;;;;;5133161;27;20422;-56
2023/08/15 10:32:28;;;;;;;12.57;6.40;;;34.50;32.90;;;;;;5132505;27;20480;-52
2023/08/15 10:34:58;;;;;;;8.03;7.23;;;34.50;32.90;;;;;;5132769;27;20930;-57
2023/08/15 10:37:34;;;;;;;10.40;6.37;;;34.50;33.00;;;;;;5133445;27;20415;-56
2023/08/15 10:40:13;;;;;;;7.60;6.77;;;34.60;33.60;;;;;;5133040;27;20509;-52
2023/08/15 10:42:57;;;;;;;7.53;6.30;;;34.70;33.50;;;;;;5132875;27;20456;-52
2023/08/15 10:45:23;;;;;;;7.07;6.37;;;34.80;33.80;;;;;;5132734;27;20423;-52
2023/08/15 10:47:49;;;;;;;7.70;6.90;;;34.90;33.50;;;;;;5132874;27;20407;-54
2023/08/15 10:50:16;;;;;;;7.73;6.93;;;34.90;32.50;;;;;;5132729;28;20408;-51
2023/08/15 10:52:42;;;;;;;6.60;5.97;;;35.00;32.60;;;;;;5132898;27;20404;-52
2023/08/15 10:55:08;;;;;;;8.40;7.07;;;34.90;32.70;;;;;;5132457;27;20427;-52
2023/08/15 10:57:35;;;;;;;8.60;7.73;;;35.00;33.40;;;;;;5132725;27;21009;-57
2023/08/15 11:00:01;;;;;;;8.40;7.20;;;35.10;32.60;;;;;;5132760;28;20406;-52
2023/08/15 11:02:28;;;;;;;7.17;6.47;;;35.10;32.30;;;;;;5132689;27;20404;-52
2023/08/15 11:04:54;;;;;;;11.07;6.40;;;35.20;32.60;;;;;;5132712;27;20426;-56
2023/08/15 11:07:26;;;;;;;8.83;6.50;;;35.20;32.40;;;;;;5132630;27;20817;-52
2023/08/15 11:09:52;;;;;;;7.27;6.67;;;35.20;31.60;;;;;;5132591;27;21007;-52
2023/08/15 11:12:18;;;;;;;7.20;6.60;;;35.20;31.50;;;;;;5132953;27;20489;-52
2023/08/15 11:14:49;;;;;;;8.73;7.93;;;35.20;32.40;;;;;;5132396;28;20521;-53
2023/08/15 11:17:15;;;;;;;8.67;6.73;;;35.30;32.90;;;;;;5132617;28;20158;-53
2023/08/15 11:19:41;;;;;;;7.20;6.50;;;35.30;32.90;;;;;;5132503;28;20407;-52
2023/08/15 11:22:07;;;;;;;7.70;7.10;;;35.50;33.10;;;;;;5132629;27;20226;-52
2023/08/15 11:24:33;;;;;;;7.23;6.43;;;35.50;33.30;;;;;;5132227;27;20190;-56
2023/08/15 11:26:59;;;;;;;7.37;6.67;;;35.50;33.20;;;;;;5132464;27;20854;-52
2023/08/15 11:29:25;;;;;;;9.70;7.17;;;35.60;33.50;;;;;;5132535;27;20409;-52
2023/08/15 11:31:54;;;;;;;6.80;6.20;;;35.70;33.90;;;;;;5132444;28;20179;-55
2023/08/15 11:34:22;;;;;;;7.63;6.80;;;35.80;32.80;;;;;;5132067;27;20451;-53
2023/08/15 11:36:48;;;;;;;12.17;7.70;;;36.00;33.20;;;;;;5132404;27;20407;-52
2023/08/15 11:39:14;;;;;;;8.37;6.60;;;36.10;32.80;;;;;;5132557;27;20430;-58
2023/08/15 11:41:40;;;;;;;8.17;6.30;;;36.20;34.00;;;;;;5131430;28;20406;-52
2023/08/15 11:44:06;;;;;;;9.10;6.63;;;36.40;32.20;;;;;;5132461;27;20494;-56
2023/08/15 11:46:37;;;;;;;8.90;8.00;;;36.50;32.00;;;;;;5135684;27;21063;-52
2023/08/15 11:49:03;;;;;;;7.17;6.47;;;36.60;32.40;;;;;;5136324;27;20174;-52
2023/08/15 11:51:29;;;;;;;7.30;6.57;;;36.60;32.20;;;;;;5135970;27;20444;-51
2023/08/15 11:53:56;;;;;;;9.70;7.50;;;36.60;33.10;;;;;;5136126;27;20404;-52
2023/08/15 11:56:22;;;;;;;7.80;7.00;;;36.60;31.60;;;;;;5135667;27;20197;-53
2023/08/15 11:58:48;;;;;;;7.03;6.43;;;36.60;30.10;;;;;;5135828;27;20738;-55
2023/08/15 12:01:14;;;;;;;7.33;6.83;;;36.60;31.70;;;;;;5136143;27;20411;-51
2023/08/15 12:03:40;;;;;;;10.63;7.43;;;36.50;30.40;;;;;;5135789;27;20415;-53
2023/08/15 12:06:08;;;;;;;11.13;7.00;;;36.40;31.10;;;;;;5135311;27;20289;-52
2023/08/15 12:08:34;;;;;;;6.90;6.40;;;36.30;31.10;;;;;;5135861;27;20165;-50
2023/08/15 12:11:06;;;;;;;10.40;7.47;;;36.20;31.90;;;;;;5134391;27;20411;-57
2023/08/15 12:13:39;;;;;;;8.13;7.33;;;36.10;32.20;;;;;;5135723;27;20176;-55
2023/08/15 12:16:07;;;;;;;7.90;6.47;;;36.10;32.70;;;;;;5135287;27;20428;-49
2023/08/15 12:18:33;;;;;;;7.37;6.67;;;36.10;31.70;;;;;;5135423;27;20408;-56
2023/08/15 12:21:00;;;;;;;6.03;5.40;;;36.00;31.30;;;;;;5135470;27;20931;-54
2023/08/15 12:23:25;;;;;;;6.90;6.13;;;36.10;32.00;;;;;;5135390;27;20400;-52
2023/08/15 12:25:51;;;;;;;6.83;6.00;;;36.10;32.60;;;;;;5135029;27;20462;-52
2023/08/15 12:28:20;;;;;;;7.67;6.90;;;36.00;31.80;;;;;;5135434;27;20227;-54
2023/08/15 12:30:46;;;;;;;10.50;6.10;;;36.10;32.70;;;;;;5135544;27;20502;-53
2023/08/15 12:33:12;;;;;;;7.23;6.63;;;36.10;33.80;;;;;;5135155;27;20901;-52
2023/08/15 12:35:38;;;;;;;11.10;7.17;;;36.00;32.00;;;;;;5134730;27;20530;-56
2023/08/15 12:38:04;;;;;;;7.17;6.47;;;36.00;31.90;;;;;;5135156;27;20490;-51
2023/08/15 12:40:31;;;;;;;11.20;6.03;;;36.00;31.90;;;;;;5135111;27;20517;-52
2023/08/15 12:42:57;;;;;;;6.83;6.23;;;36.00;31.70;;;;;;5135132;27;20449;-55
2023/08/15 12:45:23;;;;;;;9.30;8.40;;;36.00;31.90;;;;;;5134582;27;20509;-51